Time;durP1;ratioP1;P1;durP2;ratioP2;P2;SDS_P1;SDS_P2;PMS_P1;PMS_P2;Temp;Humidity;BMP_temperature;BMP_pressure;BME280_temperature;BME280_humidity;BME280_pressure;Samples;Min_cycle;Max_cycle;Signal;HPM_P1;HPM_P2
2021/09/13 00:01:13;;;;;;;12.90;12.10;;;14.40;99.90;;;;;;5001167;28;20279;-78
2021/09/13 00:03:40;;;;;;;12.20;11.40;;;14.40;99.90;;;;;;5023211;23;20315;-76
2021/09/13 00:06:09;;;;;;;12.87;11.87;;;14.30;99.90;;;;;;4983303;28;20233;-77
2021/09/13 00:08:36;;;;;;;12.47;11.57;;;14.40;99.90;;;;;;4990731;28;20259;-76
2021/09/13 00:11:03;;;;;;;12.70;11.77;;;14.40;99.90;;;;;;4988186;28;20748;-77
2021/09/13 00:13:29;;;;;;;12.67;11.57;;;14.40;99.90;;;;;;4991985;28;20217;-77
2021/09/13 00:15:59;;;;;;;12.70;11.80;;;14.30;99.90;;;;;;4987124;28;20685;-77
2021/09/13 00:18:28;;;;;;;12.60;11.73;;;14.40;99.90;;;;;;4990212;28;20224;-76
2021/09/13 00:20:55;;;;;;;12.93;12.03;;;14.40;99.90;;;;;;4987119;28;20199;-76
2021/09/13 00:23:22;;;;;;;13.50;12.60;;;14.50;99.90;;;;;;4990389;28;20643;-76
2021/09/13 00:25:50;;;;;;;15.37;14.33;;;14.50;99.90;;;;;;5010696;28;20219;-77
2021/09/13 00:28:18;;;;;;;13.97;13.07;;;14.60;99.90;;;;;;5006941;28;20266;-77
2021/09/13 00:30:45;;;;;;;7.20;5.87;;;14.60;99.90;;;;;;4992133;28;20300;-77
2021/09/13 00:33:13;;;;;;;5.83;5.23;;;14.60;99.90;;;;;;4988004;28;20247;-76
2021/09/13 00:35:40;;;;;;;7.27;6.47;;;14.60;99.90;;;;;;5008005;28;20272;-77
2021/09/13 00:38:08;;;;;;;9.23;8.43;;;14.60;99.90;;;;;;4993876;28;20204;-77
2021/09/13 00:40:36;;;;;;;5.37;4.87;;;14.70;99.90;;;;;;5006257;28;20287;-77
2021/09/13 00:43:03;;;;;;;6.20;5.50;;;14.70;99.90;;;;;;5011623;28;20223;-77
2021/09/13 00:45:31;;;;;;;5.60;5.10;;;14.70;99.90;;;;;;5006123;28;20254;-77
2021/09/13 00:47:58;;;;;;;6.60;5.00;;;14.70;99.90;;;;;;4992540;28;20258;-76
2021/09/13 00:50:26;;;;;;;5.83;5.30;;;14.70;99.90;;;;;;4988359;28;20215;-76
2021/09/13 00:52:55;;;;;;;5.53;5.03;;;14.70;99.90;;;;;;4990500;28;20255;-77
2021/09/13 00:55:23;;;;;;;5.77;5.27;;;14.70;99.90;;;;;;4991796;28;20203;-76
2021/09/13 00:57:51;;;;;;;5.60;5.10;;;14.60;99.90;;;;;;4978122;28;20196;-76
2021/09/13 01:00:19;;;;;;;5.37;4.87;;;14.60;99.90;;;;;;5008616;28;20191;-77
2021/09/13 01:02:45;;;;;;;6.20;5.30;;;14.50;99.90;;;;;;4988450;28;20660;-77
2021/09/13 01:05:13;;;;;;;5.83;5.30;;;14.50;99.90;;;;;;4985953;28;20236;-77
2021/09/13 01:07:41;;;;;;;5.77;5.27;;;14.50;99.90;;;;;;4985583;28;20556;-77
2021/09/13 01:10:09;;;;;;;9.70;9.00;;;14.40;99.90;;;;;;4988111;28;20201;-77
2021/09/13 01:12:36;;;;;;;12.43;11.53;;;14.40;99.90;;;;;;4990825;28;20634;-77
2021/09/13 01:15:04;;;;;;;6.90;5.50;;;14.40;99.90;;;;;;4988820;28;20197;-76
2021/09/13 01:17:31;;;;;;;5.37;4.87;;;14.40;99.90;;;;;;4990213;28;20204;-76
2021/09/13 01:19:58;;;;;;;5.90;5.30;;;14.40;99.90;;;;;;5004226;28;20588;-77
2021/09/13 01:22:27;;;;;;;8.73;8.00;;;14.40;99.90;;;;;;4985651;28;20595;-76
2021/09/13 01:25:03;;;;;;;12.87;12.03;;;14.40;99.90;;;;;;4989745;28;20208;-77
2021/09/13 01:27:30;;;;;;;7.77;7.07;;;14.30;99.90;;;;;;4985664;28;20571;-76
2021/09/13 01:29:58;;;;;;;9.00;8.30;;;14.30;99.90;;;;;;4985391;28;20196;-76
2021/09/13 01:32:25;;;;;;;5.33;4.83;;;14.40;99.90;;;;;;4985500;28;20633;-76
2021/09/13 01:34:57;;;;;;;5.40;4.90;;;14.40;99.90;;;;;;5000827;28;20196;-76
2021/09/13 01:37:26;;;;;;;6.17;5.07;;;14.30;99.90;;;;;;4985629;28;20630;-77
2021/09/13 01:39:57;;;;;;;5.47;4.97;;;14.40;99.90;;;;;;4989142;28;20197;-77
2021/09/13 01:42:25;;;;;;;7.80;6.13;;;14.40;99.90;;;;;;4985855;28;20206;-77
2021/09/13 01:44:52;;;;;;;6.00;5.43;;;14.40;99.90;;;;;;4987827;28;20225;-76
2021/09/13 01:47:20;;;;;;;5.60;5.10;;;14.50;99.90;;;;;;4996425;28;20255;-77
2021/09/13 01:49:49;;;;;;;8.07;6.03;;;14.50;99.90;;;;;;4993049;28;20201;-77
2021/09/13 01:52:16;;;;;;;6.60;5.53;;;14.50;99.90;;;;;;4995848;28;20276;-77
2021/09/13 01:54:43;;;;;;;6.63;5.50;;;14.50;99.90;;;;;;4988998;28;20189;-75
2021/09/13 01:57:13;;;;;;;7.47;5.40;;;14.50;99.90;;;;;;4990508;28;20224;-76
2021/09/13 01:59:41;;;;;;;5.60;5.00;;;14.50;99.90;;;;;;5010935;28;20685;-77
2021/09/13 02:02:09;;;;;;;6.27;5.37;;;14.60;99.90;;;;;;4985610;28;20585;-76
2021/09/13 02:04:37;;;;;;;6.20;5.60;;;14.50;99.90;;;;;;4993406;28;20717;-77
2021/09/13 02:07:07;;;;;;;5.50;5.00;;;14.50;99.90;;;;;;4990578;28;20201;-77
2021/09/13 02:09:34;;;;;;;5.27;4.83;;;14.50;99.90;;;;;;4988210;28;20196;-76
2021/09/13 02:12:01;;;;;;;5.20;4.70;;;14.50;99.90;;;;;;4988754;28;20199;-77
2021/09/13 02:14:30;;;;;;;5.77;5.27;;;14.50;99.90;;;;;;4992056;28;20848;-76
2021/09/13 02:16:58;;;;;;;6.23;5.27;;;14.40;99.90;;;;;;4988643;28;20287;-76
2021/09/13 02:19:25;;;;;;;6.13;5.53;;;14.40;99.90;;;;;;4995547;28;20240;-77
2021/09/13 02:21:52;;;;;;;5.50;5.00;;;14.40;99.90;;;;;;4988511;28;20578;-76
2021/09/13 02:24:19;;;;;;;5.73;5.23;;;14.40;99.90;;;;;;4989526;28;20655;-76
2021/09/13 02:26:49;;;;;;;5.63;5.10;;;14.40;99.90;;;;;;4992996;28;20221;-76
2021/09/13 02:29:16;;;;;;;6.50;5.90;;;14.40;99.90;;;;;;4988263;28;20208;-77
2021/09/13 02:31:43;;;;;;;5.57;5.00;;;14.40;99.90;;;;;;5010692;28;20199;-76
2021/09/13 02:34:12;;;;;;;7.03;6.00;;;14.40;99.90;;;;;;4991160;28;20278;-77
2021/09/13 02:36:39;;;;;;;5.47;4.97;;;14.30;99.90;;;;;;4989087;28;20585;-77
2021/09/13 02:39:09;;;;;;;5.97;5.43;;;14.30;99.90;;;;;;4986098;28;20274;-76
2021/09/13 02:41:37;;;;;;;6.17;5.57;;;14.30;99.90;;;;;;4988460;28;20226;-76
2021/09/13 02:44:05;;;;;;;7.13;5.27;;;14.30;99.90;;;;;;4988092;28;20310;-77
2021/09/13 02:46:32;;;;;;;6.03;4.97;;;14.20;99.90;;;;;;5005123;28;20212;-76
2021/09/13 02:48:59;;;;;;;5.53;5.03;;;14.20;99.90;;;;;;4993935;28;20203;-77
2021/09/13 02:51:28;;;;;;;5.43;5.03;;;14.20;99.90;;;;;;4988239;28;20301;-78
2021/09/13 02:53:54;;;;;;;5.97;5.30;;;14.10;99.90;;;;;;4994471;28;20324;-77
2021/09/13 02:56:21;;;;;;;5.57;4.70;;;14.10;99.90;;;;;;4989690;28;20192;-76
2021/09/13 02:58:49;;;;;;;5.60;5.00;;;14.10;99.90;;;;;;4989625;28;20228;-77
2021/09/13 03:01:16;;;;;;;5.47;5.07;;;14.10;99.90;;;;;;4990548;28;20650;-76
2021/09/13 03:03:44;;;;;;;5.20;4.70;;;14.10;99.90;;;;;;4991518;28;20238;-77
2021/09/13 03:06:13;;;;;;;5.17;4.67;;;14.10;99.90;;;;;;4995177;28;20259;-77
2021/09/13 03:08:42;;;;;;;4.97;4.50;;;14.10;99.90;;;;;;4992383;28;20208;-77
2021/09/13 03:11:09;;;;;;;4.70;4.27;;;14.10;99.90;;;;;;4992627;28;20276;-77
2021/09/13 03:13:37;;;;;;;5.20;4.80;;;14.10;99.90;;;;;;4994985;28;20247;-76
2021/09/13 03:16:04;;;;;;;5.57;5.07;;;14.10;99.90;;;;;;4995330;28;20203;-77
2021/09/13 03:18:33;;;;;;;6.00;5.47;;;14.00;99.90;;;;;;4987378;28;20202;-76
2021/09/13 03:21:03;;;;;;;11.70;10.90;;;13.90;99.90;;;;;;4992242;28;20199;-77
2021/09/13 03:23:30;;;;;;;13.20;12.40;;;14.00;99.90;;;;;;4986835;28;20281;-76
2021/09/13 03:25:58;;;;;;;14.07;13.17;;;13.90;99.90;;;;;;4994753;28;20226;-77
2021/09/13 03:28:28;;;;;;;13.43;12.53;;;13.90;99.90;;;;;;4990502;28;20615;-77
2021/09/13 03:30:55;;;;;;;13.30;12.40;;;14.00;99.90;;;;;;4986409;28;20200;-77
2021/09/13 03:33:22;;;;;;;5.77;5.27;;;14.00;99.90;;;;;;4988650;28;20315;-76
2021/09/13 03:35:51;;;;;;;7.00;6.30;;;14.10;99.90;;;;;;4992160;28;20207;-77
2021/09/13 03:38:18;;;;;;;8.50;6.43;;;14.10;99.90;;;;;;4989350;28;20212;-76
2021/09/13 03:40:45;;;;;;;6.80;6.20;;;14.00;99.90;;;;;;4988140;28;20205;-77
2021/09/13 03:43:14;;;;;;;6.63;5.77;;;14.00;99.90;;;;;;4990036;28;20224;-76
2021/09/13 03:45:41;;;;;;;6.80;6.20;;;14.00;99.90;;;;;;4992929;28;20230;-77
2021/09/13 03:48:22;;;;;;;6.70;6.10;;;13.90;99.90;;;;;;4994432;28;20204;-76
2021/09/13 03:50:49;;;;;;;6.27;5.67;;;13.90;99.90;;;;;;4994814;28;20287;-76
2021/09/13 03:53:17;;;;;;;7.00;6.30;;;13.90;99.90;;;;;;4990089;28;20250;-77
2021/09/13 03:55:44;;;;;;;6.73;6.13;;;13.90;99.90;;;;;;4986705;28;20199;-77
2021/09/13 03:58:14;;;;;;;6.97;6.27;;;13.90;99.90;;;;;;4986182;28;20196;-76
2021/09/13 04:00:41;;;;;;;6.93;6.23;;;13.80;99.90;;;;;;4991068;28;20200;-77
2021/09/13 04:03:15;;;;;;;8.27;6.83;;;13.80;99.90;;;;;;4986624;28;20228;-77
2021/09/13 04:05:45;;;;;;;6.80;6.10;;;13.80;99.90;;;;;;5004133;28;20204;-77
2021/09/13 04:08:58;;;;;;;6.93;6.23;;;13.80;99.90;;;;;;4993485;28;20313;-77
2021/09/13 04:11:53;;;;;;;10.87;10.03;;;13.80;99.90;;;;;;4986547;28;20266;-77
2021/09/13 04:14:44;;;;;;;14.83;13.83;;;13.70;99.90;;;;;;4976096;28;20707;-78
2021/09/13 04:17:30;;;;;;;15.43;14.43;;;13.70;99.90;;;;;;4986905;28;20230;-77
2021/09/13 04:20:32;;;;;;;15.40;14.40;;;13.70;99.90;;;;;;4951472;29;20212;-77
2021/09/13 04:23:14;;;;;;;15.23;14.13;;;13.70;99.90;;;;;;5001742;28;20237;-77
2021/09/13 04:26:07;;;;;;;16.63;15.53;;;13.60;99.90;;;;;;4988927;28;20326;-77
2021/09/13 04:28:53;;;;;;;15.80;14.70;;;13.50;99.90;;;;;;5004484;28;20208;-77
2021/09/13 04:31:40;;;;;;;17.67;16.47;;;13.50;99.90;;;;;;5004143;28;20273;-77
2021/09/13 04:34:34;;;;;;;14.43;13.53;;;13.50;99.90;;;;;;4989392;28;20319;-77
2021/09/13 04:37:20;;;;;;;15.93;14.83;;;13.50;99.90;;;;;;5008118;28;20209;-76
2021/09/13 04:40:08;;;;;;;15.17;14.17;;;13.40;99.90;;;;;;5004236;28;20662;-77
2021/09/13 04:42:48;;;;;;;14.77;13.77;;;13.40;99.90;;;;;;4986005;28;20222;-77
2021/09/13 04:45:45;;;;;;;15.07;14.03;;;13.40;99.90;;;;;;4934501;28;20793;-76
2021/09/13 04:48:32;;;;;;;14.43;13.53;;;13.30;99.90;;;;;;5008556;28;20260;-77
2021/09/13 04:51:14;;;;;;;14.67;13.70;;;13.40;99.90;;;;;;4989288;28;20202;-76
2021/09/13 04:54:04;;;;;;;14.53;13.67;;;13.30;99.90;;;;;;4993849;28;20237;-77
2021/09/13 04:56:32;;;;;;;14.90;13.90;;;13.30;99.90;;;;;;4988893;28;20251;-76
2021/09/13 04:58:59;;;;;;;14.60;13.60;;;13.30;99.90;;;;;;4986839;28;20633;-77
2021/09/13 05:01:26;;;;;;;15.73;14.70;;;13.30;99.90;;;;;;4986009;28;20208;-77
2021/09/13 05:03:54;;;;;;;15.67;14.50;;;13.30;99.90;;;;;;4989140;28;20253;-76
2021/09/13 05:06:21;;;;;;;14.30;13.30;;;13.20;99.90;;;;;;4985949;28;20233;-77
2021/09/13 05:08:50;;;;;;;14.50;13.50;;;13.20;99.90;;;;;;4993816;28;20675;-77
2021/09/13 05:11:20;;;;;;;14.67;13.67;;;13.20;99.90;;;;;;4994282;28;20309;-77
2021/09/13 05:13:47;;;;;;;15.07;14.07;;;13.20;99.90;;;;;;4990745;28;20651;-77
2021/09/13 05:16:14;;;;;;;15.03;14.00;;;13.20;99.90;;;;;;5006580;28;20205;-75
2021/09/13 05:18:45;;;;;;;15.90;14.80;;;13.20;99.90;;;;;;4987316;28;20328;-77
2021/09/13 05:21:13;;;;;;;15.67;14.53;;;13.20;99.90;;;;;;4989296;28;20208;-76
2021/09/13 05:23:40;;;;;;;15.80;14.70;;;13.20;99.90;;;;;;4989328;28;20615;-77
2021/09/13 05:26:07;;;;;;;15.30;14.30;;;13.20;99.90;;;;;;4991885;28;20234;-77
2021/09/13 05:28:34;;;;;;;14.80;13.80;;;13.20;99.90;;;;;;4988833;28;20207;-77
2021/09/13 05:31:02;;;;;;;14.83;13.73;;;13.20;99.90;;;;;;4985340;28;20622;-77
2021/09/13 05:33:32;;;;;;;15.70;14.50;;;13.20;99.90;;;;;;4989348;28;20319;-76
2021/09/13 05:35:59;;;;;;;16.00;14.80;;;13.20;99.90;;;;;;4989402;28;20207;-76
2021/09/13 05:38:28;;;;;;;16.43;15.23;;;13.20;99.90;;;;;;4992912;28;20210;-76
2021/09/13 05:40:57;;;;;;;15.50;14.40;;;13.30;99.90;;;;;;4989373;28;20203;-77
2021/09/13 05:43:24;;;;;;;15.97;14.87;;;13.30;99.90;;;;;;4999986;28;20230;-77
2021/09/13 05:45:53;;;;;;;15.97;14.87;;;13.40;99.90;;;;;;4996364;28;20211;-76
2021/09/13 05:48:20;;;;;;;16.13;15.07;;;13.50;99.90;;;;;;4997056;28;20279;-77
2021/09/13 05:50:47;;;;;;;8.63;7.90;;;13.60;99.90;;;;;;4991542;28;20626;-78
2021/09/13 05:53:20;;;;;;;8.63;6.07;;;13.80;99.90;;;;;;4997352;28;20233;-77
2021/09/13 05:55:49;;;;;;;7.30;6.43;;;13.90;99.90;;;;;;4985569;28;20255;-77
2021/09/13 05:58:16;;;;;;;8.07;6.90;;;14.00;99.90;;;;;;4992065;28;20197;-77
2021/09/13 06:00:43;;;;;;;7.50;6.80;;;14.00;99.90;;;;;;4997115;28;20644;-77
2021/09/13 06:03:10;;;;;;;12.60;11.70;;;14.00;99.90;;;;;;4989899;28;20291;-76
2021/09/13 06:05:56;;;;;;;6.40;5.80;;;14.10;99.90;;;;;;4996130;28;20229;-77
2021/09/13 06:08:23;;;;;;;13.47;12.57;;;14.10;99.90;;;;;;4988357;28;20201;-76
2021/09/13 06:10:52;;;;;;;9.53;8.83;;;14.20;99.90;;;;;;4987940;28;20267;-77
2021/09/13 06:13:20;;;;;;;6.70;6.10;;;14.20;99.90;;;;;;4992074;28;20227;-77
2021/09/13 06:15:49;;;;;;;9.60;8.80;;;14.30;99.90;;;;;;4988732;28;20200;-77
2021/09/13 06:18:16;;;;;;;6.57;5.97;;;14.30;99.90;;;;;;4985126;28;20678;-77
2021/09/13 06:20:43;;;;;;;8.87;8.17;;;14.30;99.90;;;;;;5010697;28;20271;-77
2021/09/13 06:23:10;;;;;;;8.73;6.83;;;14.40;99.90;;;;;;4990926;28;20231;-77
2021/09/13 06:25:36;;;;;;;7.03;6.43;;;14.40;99.90;;;;;;4990246;28;20237;-77
2021/09/13 06:28:06;;;;;;;6.47;5.80;;;14.40;99.90;;;;;;5007798;28;20223;-77
2021/09/13 06:30:34;;;;;;;6.40;5.77;;;14.40;99.90;;;;;;4987193;28;20219;-77
2021/09/13 06:33:04;;;;;;;7.07;6.47;;;14.50;99.90;;;;;;4988389;28;20224;-78
2021/09/13 06:35:35;;;;;;;6.43;5.83;;;14.60;99.90;;;;;;4995317;28;20239;-78
2021/09/13 06:38:12;;;;;;;7.50;6.90;;;14.70;99.90;;;;;;4991356;28;20215;-77
2021/09/13 06:40:40;;;;;;;12.53;11.73;;;14.80;99.90;;;;;;4996384;28;20200;-77
2021/09/13 06:43:09;;;;;;;6.53;5.93;;;14.90;99.90;;;;;;4995915;28;20739;-78
2021/09/13 06:45:41;;;;;;;12.57;11.73;;;15.00;99.90;;;;;;4987859;28;20263;-77
2021/09/13 06:48:10;;;;;;;9.17;6.30;;;15.00;99.90;;;;;;4991809;28;20220;-77
2021/09/13 06:50:38;;;;;;;5.93;5.43;;;15.10;99.90;;;;;;5005634;28;20276;-77
2021/09/13 06:53:06;;;;;;;6.20;5.57;;;15.20;99.90;;;;;;4990065;28;20236;-77
2021/09/13 06:55:33;;;;;;;5.50;5.00;;;15.20;99.90;;;;;;4987860;28;20676;-77
2021/09/13 06:58:00;;;;;;;5.67;5.07;;;15.40;99.90;;;;;;5004461;28;20196;-77
2021/09/13 07:00:28;;;;;;;10.80;10.00;;;15.50;99.90;;;;;;5010874;28;20202;-78
2021/09/13 07:02:55;;;;;;;13.33;12.33;;;15.70;99.90;;;;;;4987730;28;20278;-78
2021/09/13 07:05:21;;;;;;;13.83;12.93;;;15.80;99.90;;;;;;5005983;28;20194;-77
2021/09/13 07:07:48;;;;;;;12.43;11.63;;;16.10;99.90;;;;;;5009943;28;20262;-78
2021/09/13 07:10:17;;;;;;;13.37;12.47;;;16.30;99.90;;;;;;5005691;28;20262;-78
2021/09/13 07:12:46;;;;;;;12.77;11.80;;;16.50;99.90;;;;;;5010106;28;20217;-78
2021/09/13 07:15:15;;;;;;;13.57;12.57;;;17.00;99.90;;;;;;5009061;28;20291;-78
2021/09/13 07:17:44;;;;;;;11.00;10.20;;;17.40;99.90;;;;;;5005216;28;20190;-78
2021/09/13 07:20:13;;;;;;;11.53;10.70;;;17.80;99.90;;;;;;4991609;28;20307;-78
2021/09/13 07:22:40;;;;;;;12.27;11.33;;;18.20;99.90;;;;;;4987764;28;20321;-78
2021/09/13 07:25:08;;;;;;;12.40;11.50;;;18.60;99.90;;;;;;4988169;28;20196;-78
2021/09/13 07:27:35;;;;;;;11.37;10.27;;;19.00;99.90;;;;;;5005388;28;20223;-78
2021/09/13 07:30:02;;;;;;;11.93;11.03;;;19.40;99.90;;;;;;4993563;28;20255;-78
2021/09/13 07:32:29;;;;;;;9.30;8.60;;;19.80;99.90;;;;;;4988208;28;20208;-79
2021/09/13 07:34:57;;;;;;;12.10;11.20;;;20.10;99.90;;;;;;5009298;28;20728;-78
2021/09/13 07:37:24;;;;;;;12.20;11.30;;;20.50;99.90;;;;;;5010477;28;20207;-78
2021/09/13 07:39:51;;;;;;;11.50;10.70;;;20.90;99.90;;;;;;4992338;28;20254;-78
2021/09/13 07:42:18;;;;;;;9.50;7.80;;;21.20;99.90;;;;;;5009612;28;20207;-78
2021/09/13 07:44:45;;;;;;;5.40;4.63;;;21.50;99.90;;;;;;5005900;28;20215;-78
2021/09/13 07:47:11;;;;;;;8.20;7.50;;;21.90;99.90;;;;;;4991118;28;20243;-78
2021/09/13 07:49:38;;;;;;;12.43;11.43;;;22.00;99.90;;;;;;4988152;28;20200;-78
2021/09/13 07:52:07;;;;;;;12.33;11.43;;;21.90;99.90;;;;;;5006007;28;20207;-78
2021/09/13 07:54:33;;;;;;;6.07;4.67;;;22.20;99.90;;;;;;5009907;28;20255;-78
2021/09/13 07:57:00;;;;;;;7.07;4.77;;;22.40;99.90;;;;;;5006311;28;20555;-78
2021/09/13 07:59:27;;;;;;;6.70;5.00;;;22.60;99.90;;;;;;4987795;28;20205;-79
2021/09/13 08:01:54;;;;;;;5.53;4.40;;;22.90;99.90;;;;;;5010792;28;20193;-78
2021/09/13 08:04:21;;;;;;;6.13;5.17;;;23.00;99.90;;;;;;5010979;28;20231;-78
2021/09/13 08:06:48;;;;;;;5.10;4.57;;;23.10;99.90;;;;;;4989254;28;20215;-78
2021/09/13 08:09:16;;;;;;;7.40;6.80;;;23.20;99.90;;;;;;5010820;28;20607;-78
2021/09/13 08:11:43;;;;;;;4.57;4.17;;;23.50;99.90;;;;;;5006682;28;20193;-78
2021/09/13 08:14:12;;;;;;;6.30;5.70;;;23.60;99.90;;;;;;5013597;28;20219;-78
2021/09/13 08:16:40;;;;;;;6.63;4.50;;;23.70;99.90;;;;;;5006684;28;20193;-79
2021/09/13 08:19:07;;;;;;;8.63;8.07;;;23.80;99.90;;;;;;4992112;28;20202;-79
2021/09/13 08:21:37;;;;;;;5.00;4.03;;;24.10;99.90;;;;;;5006815;28;20252;-79
2021/09/13 08:24:08;;;;;;;4.93;4.27;;;24.20;99.90;;;;;;4991383;28;20741;-79
2021/09/13 08:26:37;;;;;;;9.63;8.93;;;24.00;99.90;;;;;;4994498;28;20255;-78
2021/09/13 08:29:05;;;;;;;5.73;4.80;;;24.00;99.90;;;;;;4978037;28;20220;-79
2021/09/13 08:31:32;;;;;;;6.10;5.50;;;24.10;99.90;;;;;;4977109;28;20203;-78
2021/09/13 08:33:59;;;;;;;5.30;4.80;;;24.00;99.90;;;;;;5005972;28;20224;-79
2021/09/13 08:36:26;;;;;;;5.17;4.57;;;23.80;99.90;;;;;;4996412;28;20215;-79
2021/09/13 08:38:53;;;;;;;7.57;4.73;;;24.00;99.90;;;;;;4989152;28;20215;-78
2021/09/13 08:41:19;;;;;;;8.50;7.80;;;24.00;99.90;;;;;;5006621;28;20254;-78
2021/09/13 08:43:49;;;;;;;12.13;11.27;;;23.80;99.90;;;;;;5012663;28;20857;-78
2021/09/13 08:46:19;;;;;;;10.60;9.70;;;24.10;99.90;;;;;;5008293;28;20205;-79
2021/09/13 08:48:49;;;;;;;13.27;12.47;;;24.20;99.90;;;;;;5006237;28;20263;-79
2021/09/13 08:51:30;;;;;;;11.27;10.57;;;24.50;99.90;;;;;;4990207;28;20197;-79
2021/09/13 08:54:02;;;;;;;11.27;10.50;;;24.70;99.90;;;;;;4992463;28;20228;-79
2021/09/13 08:56:33;;;;;;;10.10;9.50;;;24.80;99.90;;;;;;5006148;28;20206;-78
2021/09/13 08:59:04;;;;;;;10.40;9.70;;;24.80;99.90;;;;;;5005766;28;20258;-79
2021/09/13 09:01:32;;;;;;;10.80;9.90;;;24.90;99.90;;;;;;5005833;28;20682;-78
2021/09/13 09:03:59;;;;;;;10.27;9.60;;;24.80;99.90;;;;;;5009880;28;20228;-78
2021/09/13 09:06:34;;;;;;;11.57;10.57;;;24.70;99.90;;;;;;5006425;28;20197;-79
2021/09/13 09:09:03;;;;;;;10.07;9.47;;;24.40;99.90;;;;;;5008991;28;20232;-78
2021/09/13 09:11:49;;;;;;;11.10;10.40;;;24.50;99.90;;;;;;4992979;28;20269;-78
2021/09/13 09:14:34;;;;;;;11.57;10.67;;;24.80;99.90;;;;;;4987714;28;20233;-79
2021/09/13 09:17:04;;;;;;;11.40;10.33;;;24.80;99.90;;;;;;5007123;28;20266;-79
2021/09/13 09:19:31;;;;;;;11.27;10.40;;;24.80;99.90;;;;;;5010524;28;20207;-79
2021/09/13 09:22:16;;;;;;;10.63;9.90;;;25.10;99.90;;;;;;4986931;28;20225;-79
2021/09/13 09:24:43;;;;;;;10.83;9.90;;;25.40;99.90;;;;;;5013124;28;20200;-79
2021/09/13 09:27:10;;;;;;;10.70;10.00;;;25.40;99.90;;;;;;5010654;28;20216;-79
2021/09/13 09:29:38;;;;;;;10.37;9.60;;;25.60;99.90;;;;;;5005213;28;20254;-79
2021/09/13 09:32:06;;;;;;;11.07;10.37;;;25.50;99.90;;;;;;5005747;28;20197;-78
2021/09/13 09:34:34;;;;;;;11.00;10.30;;;25.60;99.90;;;;;;5010042;28;20228;-78
2021/09/13 09:37:11;;;;;;;11.37;10.53;;;25.30;99.90;;;;;;5005634;28;20743;-78
2021/09/13 09:39:40;;;;;;;10.73;10.03;;;25.40;99.90;;;;;;4988303;28;20572;-78
2021/09/13 09:42:09;;;;;;;10.80;10.10;;;25.40;99.90;;;;;;5008163;28;20200;-79
2021/09/13 09:44:38;;;;;;;11.40;10.50;;;25.20;99.90;;;;;;4996704;28;20795;-79
2021/09/13 09:47:08;;;;;;;10.97;10.27;;;25.30;99.90;;;;;;5014426;28;20235;-79
2021/09/13 09:49:47;;;;;;;11.40;10.70;;;25.50;99.90;;;;;;5008099;28;20575;-79
2021/09/13 09:52:31;;;;;;;11.00;10.30;;;25.70;99.90;;;;;;5009327;28;20208;-78
2021/09/13 09:55:09;;;;;;;11.33;10.43;;;25.20;99.90;;;;;;5007019;28;20197;-79
2021/09/13 09:57:36;;;;;;;10.37;9.47;;;25.40;99.90;;;;;;4992207;28;20196;-79
2021/09/13 10:00:22;;;;;;;10.80;10.03;;;25.50;99.90;;;;;;4989569;28;20204;-78
2021/09/13 10:02:52;;;;;;;10.70;9.90;;;25.40;99.90;;;;;;4988193;28;20228;-77
2021/09/13 10:05:18;;;;;;;10.70;9.90;;;25.20;99.90;;;;;;5010616;28;20200;-79
2021/09/13 10:07:48;;;;;;;10.30;9.50;;;25.20;99.90;;;;;;5009058;28;20758;-78
2021/09/13 10:10:15;;;;;;;10.00;9.30;;;25.00;99.90;;;;;;5009169;28;20195;-78
2021/09/13 10:12:42;;;;;;;10.03;9.43;;;25.10;99.90;;;;;;4992630;28;20224;-77
2021/09/13 10:15:10;;;;;;;10.70;9.90;;;24.80;99.90;;;;;;4991783;28;20196;-79
2021/09/13 10:17:38;;;;;;;10.90;10.10;;;24.80;99.90;;;;;;5016996;28;20212;-78
2021/09/13 10:20:07;;;;;;;10.20;9.50;;;24.80;99.90;;;;;;5016918;28;20623;-79
2021/09/13 10:22:36;;;;;;;10.20;9.50;;;24.90;99.90;;;;;;5011261;28;20262;-79
2021/09/13 10:25:04;;;;;;;10.20;9.50;;;24.80;99.90;;;;;;5009887;28;20263;-78
2021/09/13 10:27:35;;;;;;;10.20;9.40;;;24.80;99.90;;;;;;5013178;28;20235;-78
2021/09/13 10:30:14;;;;;;;10.63;9.83;;;24.60;99.90;;;;;;4992235;28;20204;-78
2021/09/13 10:32:44;;;;;;;10.90;10.20;;;24.60;99.90;;;;;;5008259;28;20275;-78
2021/09/13 10:35:12;;;;;;;10.70;10.00;;;24.60;99.90;;;;;;4995822;28;20205;-78
2021/09/13 10:37:42;;;;;;;10.50;9.80;;;24.60;99.90;;;;;;4985440;28;20193;-78
2021/09/13 10:40:10;;;;;;;10.80;9.90;;;24.50;99.90;;;;;;5008356;28;20204;-78
2021/09/13 10:42:44;;;;;;;10.83;10.03;;;24.40;99.90;;;;;;5010362;28;20212;-79
2021/09/13 10:45:18;;;;;;;10.40;9.70;;;24.20;99.90;;;;;;5007932;28;20200;-78
2021/09/13 10:47:47;;;;;;;11.20;10.40;;;24.30;99.90;;;;;;5012776;28;21063;-78
2021/09/13 10:50:23;;;;;;;11.23;10.43;;;24.30;99.90;;;;;;5011454;28;20200;-78
2021/09/13 10:52:51;;;;;;;10.77;10.00;;;24.30;99.90;;;;;;4998145;28;20231;-78
2021/09/13 10:55:41;;;;;;;10.70;10.00;;;24.20;99.90;;;;;;5008196;28;20216;-78
2021/09/13 10:58:11;;;;;;;11.47;10.67;;;24.30;99.90;;;;;;5004779;28;20570;-78
2021/09/13 11:01:01;;;;;;;11.20;10.30;;;24.10;99.90;;;;;;5006752;28;20201;-79
2021/09/13 11:03:37;;;;;;;11.77;10.67;;;24.00;99.90;;;;;;5007590;28;20251;-78
2021/09/13 11:06:24;;;;;;;11.00;10.30;;;23.70;99.90;;;;;;5007855;28;20615;-78
2021/09/13 11:08:54;;;;;;;10.80;10.00;;;23.60;99.90;;;;;;5007816;28;20213;-78
2021/09/13 11:11:25;;;;;;;10.50;9.80;;;23.70;99.90;;;;;;5007804;28;20224;-78
2021/09/13 11:13:57;;;;;;;11.40;10.60;;;23.80;99.90;;;;;;5004661;28;20571;-78
2021/09/13 11:16:24;;;;;;;10.67;9.97;;;23.90;99.90;;;;;;4989893;28;20205;-78
2021/09/13 11:18:55;;;;;;;11.10;10.40;;;24.00;99.90;;;;;;5010124;28;20217;-78
2021/09/13 11:21:28;;;;;;;11.10;10.40;;;24.10;99.90;;;;;;5012502;28;20285;-78
2021/09/13 11:23:58;;;;;;;11.07;10.27;;;24.20;99.90;;;;;;5008134;28;20213;-78
2021/09/13 11:26:31;;;;;;;10.80;10.00;;;24.20;99.90;;;;;;5012157;28;20352;-78
2021/09/13 11:28:59;;;;;;;10.80;10.10;;;24.10;99.90;;;;;;5004669;28;20304;-79
2021/09/13 11:31:38;;;;;;;10.80;9.83;;;24.00;99.90;;;;;;5012514;28;20673;-78
2021/09/13 11:34:29;;;;;;;10.80;9.93;;;24.10;99.90;;;;;;5014711;28;20224;-79
2021/09/13 11:37:06;;;;;;;10.90;10.20;;;24.20;99.90;;;;;;5010958;28;20667;-79
2021/09/13 11:39:37;;;;;;;11.17;10.40;;;24.10;99.90;;;;;;5006826;28;20247;-78
2021/09/13 11:42:07;;;;;;;11.17;10.47;;;24.00;99.90;;;;;;4992291;28;20200;-78
2021/09/13 11:44:39;;;;;;;11.13;10.33;;;24.10;99.90;;;;;;4988587;28;20276;-78
2021/09/13 11:47:07;;;;;;;11.30;10.60;;;24.20;99.90;;;;;;5015546;28;20193;-78
2021/09/13 11:49:37;;;;;;;10.87;10.17;;;24.20;99.90;;;;;;5014765;28;20693;-79
2021/09/13 11:52:10;;;;;;;10.90;10.20;;;24.20;99.90;;;;;;5015878;28;20185;-78
2021/09/13 11:54:45;;;;;;;10.50;9.90;;;24.30;99.90;;;;;;5015897;28;20587;-78
2021/09/13 11:57:38;;;;;;;10.47;9.77;;;24.40;99.90;;;;;;5015683;28;20246;-79
2021/09/13 12:00:09;;;;;;;11.30;10.50;;;24.40;99.90;;;;;;4991179;28;20200;-78
2021/09/13 12:02:42;;;;;;;10.10;9.50;;;24.20;99.90;;;;;;5006368;28;20295;-78
2021/09/13 12:05:14;;;;;;;10.33;9.63;;;24.10;99.90;;;;;;5010085;28;20568;-78
2021/09/13 12:07:44;;;;;;;10.20;9.60;;;24.20;99.90;;;;;;5006691;28;20192;-78
2021/09/13 12:10:11;;;;;;;10.60;9.90;;;24.20;99.90;;;;;;5008038;28;20217;-78
2021/09/13 12:12:43;;;;;;;10.50;9.80;;;24.10;99.90;;;;;;5011029;28;20235;-79
2021/09/13 12:15:12;;;;;;;10.93;10.13;;;24.10;99.90;;;;;;5009369;28;20260;-78
2021/09/13 12:17:41;;;;;;;11.37;10.53;;;24.10;99.90;;;;;;5008158;28;20196;-78
2021/09/13 12:20:21;;;;;;;11.20;10.40;;;24.10;99.90;;;;;;5008821;28;20200;-78
2021/09/13 12:22:49;;;;;;;10.90;10.20;;;24.00;99.90;;;;;;5006586;28;20224;-78
2021/09/13 12:25:19;;;;;;;11.00;10.30;;;24.10;99.90;;;;;;4988957;28;20196;-79
2021/09/13 12:27:48;;;;;;;10.90;10.20;;;24.20;99.90;;;;;;5008982;28;20196;-78
2021/09/13 12:30:18;;;;;;;11.07;10.27;;;24.30;99.90;;;;;;5005815;28;20235;-78
2021/09/13 12:32:57;;;;;;;10.23;9.57;;;24.40;99.90;;;;;;4988927;28;20221;-78
2021/09/13 12:35:33;;;;;;;9.80;9.20;;;24.40;99.90;;;;;;5006431;28;20197;-78
2021/09/13 12:38:01;;;;;;;10.03;9.33;;;24.40;99.90;;;;;;5003613;28;20201;-78
2021/09/13 12:40:27;;;;;;;10.07;9.37;;;24.30;99.90;;;;;;5006088;28;20193;-78
2021/09/13 12:42:58;;;;;;;9.90;9.20;;;24.30;99.90;;;;;;5010206;28;20717;-78
2021/09/13 12:45:27;;;;;;;10.03;9.43;;;24.30;99.90;;;;;;5004702;28;20666;-78
2021/09/13 12:47:56;;;;;;;9.60;8.90;;;24.30;99.90;;;;;;5002525;28;20193;-78
2021/09/13 12:50:32;;;;;;;9.67;9.07;;;24.30;99.90;;;;;;5006161;28;20231;-78
2021/09/13 12:53:01;;;;;;;10.40;9.60;;;24.30;99.90;;;;;;5004054;28;20213;-78